createdAt,value
2018-12-03T00:00:04.600Z,81.85
2018-12-03T00:01:04.352Z,81.56
2018-12-03T00:02:04.629Z,81.76
2018-12-03T00:03:04.404Z,81.27
2018-12-03T00:04:04.675Z,81.56
2018-12-03T00:05:04.730Z,81.47
2018-12-03T00:06:04.737Z,81.76
2018-12-03T00:07:04.734Z,81.95
2018-12-03T00:08:04.504Z,81.56
2018-12-03T00:09:04.779Z,81.66
2018-12-03T00:10:04.814Z,81.85
2018-12-03T00:11:04.818Z,82.04
2018-12-03T00:12:04.844Z,82.14
2018-12-03T00:13:04.874Z,81.95
2018-12-03T00:14:04.635Z,81.76
2018-12-03T00:15:04.909Z,82.04
2018-12-03T00:16:04.667Z,81.37
2018-12-03T00:17:04.691Z,81.95
2018-12-03T00:18:04.720Z,82.04
2018-12-03T00:19:05.007Z,81.85
2018-12-03T00:20:04.754Z,82.14
2018-12-03T00:21:05.032Z,82.14
2018-12-03T00:22:04.797Z,82.14
2018-12-03T00:23:04.826Z,82.14
2018-12-03T00:24:04.840Z,82.14
2018-12-03T00:25:04.866Z,81.76
2018-12-03T00:26:04.885Z,82.14
2018-12-03T00:27:05.158Z,81.85
2018-12-03T00:28:05.185Z,82.04
2018-12-03T00:29:05.207Z,81.95
2018-12-03T00:30:04.966Z,82.04
2018-12-03T00:31:05.263Z,81.95
2018-12-03T00:32:05.009Z,81.76
2018-12-03T00:33:05.301Z,81.66
2018-12-03T00:34:05.052Z,81.56
2018-12-03T00:35:05.336Z,81.95
2018-12-03T00:36:05.096Z,81.85
2018-12-03T00:37:05.118Z,81.95
2018-12-03T00:38:05.465Z,82.14
2018-12-03T00:39:05.158Z,81.95
2018-12-03T00:40:05.443Z,81.95
2018-12-03T00:41:05.464Z,81.85
2018-12-03T00:42:05.222Z,81.76
2018-12-03T00:43:05.252Z,81.85
2018-12-03T00:44:05.266Z,81.76
2018-12-03T00:45:05.556Z,81.85
2018-12-03T00:46:05.311Z,81.76
2018-12-03T00:47:05.588Z,81.85
2018-12-03T00:48:05.606Z,81.85
2018-12-03T00:49:05.371Z,81.95
2018-12-03T00:50:05.394Z,81.76
2018-12-03T00:51:05.416Z,81.85
2018-12-03T00:52:05.707Z,81.95
2018-12-03T00:53:05.727Z,81.95
2018-12-03T00:54:05.479Z,81.95
2018-12-03T00:55:05.499Z,81.76
2018-12-03T00:56:05.801Z,81.95
2018-12-03T00:57:05.811Z,82.14
2018-12-03T00:58:05.826Z,81.95
2018-12-03T00:59:05.587Z,81.95
2018-12-03T01:00:05.871Z,82.14
2018-12-03T01:01:05.904Z,81.76
2018-12-03T01:02:05.652Z,81.85
2018-12-03T01:03:05.928Z,81.76
2018-12-03T01:04:05.959Z,81.85
2018-12-03T01:05:05.713Z,81.66
2018-12-03T01:06:05.742Z,81.66
2018-12-03T01:07:06.026Z,81.85
2018-12-03T01:08:06.042Z,81.66
2018-12-03T01:09:06.057Z,82.04
2018-12-03T01:10:06.081Z,82.04
2018-12-03T01:11:05.840Z,82.04
2018-12-03T01:12:05.863Z,81.85
2018-12-03T01:13:06.145Z,81.85
2018-12-03T01:14:06.436Z,81.85
2018-12-03T01:15:06.186Z,81.85
2018-12-03T01:16:05.967Z,81.85
2018-12-03T01:17:05.969Z,81.56
2018-12-03T01:18:06.253Z,81.85
2018-12-03T01:19:06.271Z,81.66
2018-12-03T01:20:06.043Z,81.56
2018-12-03T01:21:06.056Z,81.76
2018-12-03T01:22:06.348Z,81.95
2018-12-03T01:23:06.362Z,81.95
2018-12-03T01:24:06.118Z,81.66
2018-12-03T01:25:06.148Z,82.04
2018-12-03T01:26:06.423Z,82.04
2018-12-03T01:27:06.183Z,81.85
2018-12-03T01:28:06.204Z,81.85
2018-12-03T01:29:06.488Z,81.76
2018-12-03T01:30:06.508Z,82.14
2018-12-03T01:31:06.527Z,82.14
2018-12-03T01:32:06.299Z,81.85
2018-12-03T01:33:06.574Z,81.95
2018-12-03T01:34:06.332Z,82.04
2018-12-03T01:35:06.613Z,81.85
2018-12-03T01:36:06.640Z,82.04
2018-12-03T01:37:06.657Z,81.66
2018-12-03T01:38:06.482Z,81.66
2018-12-03T01:39:06.443Z,81.66
2018-12-03T01:40:06.731Z,81.66
2018-12-03T01:41:06.742Z,81.47
2018-12-03T01:42:06.512Z,81.66
2018-12-03T01:43:06.526Z,81.56
2018-12-03T01:44:06.551Z,81.95
2018-12-03T01:45:06.826Z,81.85
2018-12-03T01:46:06.850Z,81.66
2018-12-03T01:47:06.878Z,81.66
2018-12-03T01:48:06.630Z,81.66
2018-12-03T01:49:06.658Z,81.56
2018-12-03T01:50:06.675Z,81.95
2018-12-03T01:51:06.969Z,81.76
2018-12-03T01:52:06.993Z,81.66
2018-12-03T01:53:06.741Z,81.95
2018-12-03T01:54:06.763Z,81.66
2018-12-03T01:55:06.784Z,81.47
2018-12-03T01:56:07.065Z,81.85
2018-12-03T01:57:07.099Z,81.47
2018-12-03T01:58:07.107Z,81.47
2018-12-03T01:59:06.876Z,81.95
2018-12-03T02:00:06.896Z,81.95
2018-12-03T02:01:06.913Z,81.66
2018-12-03T02:02:07.186Z,81.47
2018-12-03T02:03:07.219Z,81.47
2018-12-03T02:04:06.983Z,81.47
2018-12-03T02:05:06.994Z,81.95
2018-12-03T02:06:07.026Z,81.47
2018-12-03T02:07:07.044Z,81.47
2018-12-03T02:08:07.059Z,81.47
2018-12-03T02:09:07.091Z,81.47
2018-12-03T02:10:07.363Z,81.47
2018-12-03T02:11:07.126Z,81.85
2018-12-03T02:12:07.146Z,81.66
2018-12-03T02:13:07.424Z,81.47
2018-12-03T02:14:07.199Z,81.76
2018-12-03T02:15:07.214Z,81.47
2018-12-03T02:16:07.489Z,81.66
2018-12-03T02:17:07.252Z,81.85
2018-12-03T02:18:07.589Z,81.76
2018-12-03T02:19:07.306Z,81.76
2018-12-03T02:20:07.573Z,81.66
2018-12-03T02:21:07.341Z,81.56
2018-12-03T02:22:07.631Z,81.76
2018-12-03T02:23:07.388Z,81.56
2018-12-03T02:24:07.400Z,81.47
2018-12-03T02:25:07.682Z,81.66
2018-12-03T02:26:07.452Z,81.76
2018-12-03T02:27:07.467Z,81.47
2018-12-03T02:28:07.494Z,81.47
2018-12-03T02:29:07.505Z,81.47
2018-12-03T02:30:07.543Z,81.76
2018-12-03T02:31:07.816Z,81.85
2018-12-03T02:32:07.843Z,81.47
2018-12-03T02:33:07.850Z,81.47
2018-12-03T02:34:07.885Z,81.95
2018-12-03T02:35:07.660Z,81.85
2018-12-03T02:36:07.656Z,81.95
2018-12-03T02:37:07.952Z,82.14
2018-12-03T02:38:07.971Z,81.56
2018-12-03T02:39:07.724Z,81.47
2018-12-03T02:40:08.055Z,81.56
2018-12-03T02:41:08.024Z,81.56
2018-12-03T02:42:08.040Z,81.47
2018-12-03T02:43:08.067Z,81.85
2018-12-03T02:44:07.837Z,81.47
2018-12-03T02:45:08.105Z,81.95
2018-12-03T02:46:08.126Z,81.95
2018-12-03T02:47:07.891Z,81.95
2018-12-03T02:48:08.197Z,81.66
2018-12-03T02:49:07.933Z,81.56
2018-12-03T02:50:07.951Z,81.66
2018-12-03T02:51:07.974Z,81.95
2018-12-03T02:52:08.263Z,81.76
2018-12-03T02:53:08.016Z,81.95
2018-12-03T02:54:08.301Z,81.85
2018-12-03T02:55:08.337Z,81.85
2018-12-03T02:56:08.336Z,81.95
2018-12-03T02:57:08.371Z,82.14
2018-12-03T02:58:08.137Z,81.85
2018-12-03T02:59:08.407Z,81.95
2018-12-03T03:00:08.438Z,82.14
2018-12-03T03:01:08.198Z,81.85
2018-12-03T03:02:08.217Z,81.66
2018-12-03T03:03:08.231Z,81.66
2018-12-03T03:04:08.252Z,81.76
2018-12-03T03:05:08.287Z,81.95
2018-12-03T03:06:08.295Z,81.85
2018-12-03T03:07:08.314Z,81.85
2018-12-03T03:08:08.352Z,81.56
2018-12-03T03:09:08.364Z,81.66
2018-12-03T03:10:08.383Z,82.52
2018-12-03T03:11:08.405Z,82.32
2018-12-03T03:12:08.421Z,82.42
2018-12-03T03:13:08.443Z,82.52
2018-12-03T03:14:08.466Z,82.32
2018-12-03T03:15:08.758Z,81.95
2018-12-03T03:16:08.508Z,82.32
2018-12-03T03:17:08.532Z,82.23
2018-12-03T03:18:08.815Z,82.32
2018-12-03T03:19:08.842Z,82.42
2018-12-03T03:20:08.856Z,82.32
2018-12-03T03:21:08.872Z,82.42
2018-12-03T03:22:08.636Z,82.42
2018-12-03T03:23:08.916Z,82.32
2018-12-03T03:24:08.934Z,82.23
2018-12-03T03:25:08.958Z,82.04
2018-12-03T03:26:08.719Z,82.52
2018-12-03T03:27:08.998Z,82.61
2018-12-03T03:28:09.030Z,82.81
2018-12-03T03:29:09.044Z,82.52
2018-12-03T03:30:09.066Z,82.14
2018-12-03T03:31:09.085Z,82.14
2018-12-03T03:32:09.107Z,81.95
2018-12-03T03:33:09.140Z,82.14
2018-12-03T03:34:09.148Z,82.42
2018-12-03T03:35:09.173Z,82.42
2018-12-03T03:36:08.930Z,82.61
2018-12-03T03:37:09.221Z,82.42
2018-12-03T03:38:09.234Z,82.71
2018-12-03T03:39:09.011Z,82.61
2018-12-03T03:40:09.016Z,82.81
2018-12-03T03:41:09.296Z,82.61
2018-12-03T03:42:09.072Z,82.81
2018-12-03T03:43:09.083Z,82.61
2018-12-03T03:44:09.362Z,82.52
2018-12-03T03:45:09.134Z,82.81
2018-12-03T03:46:09.398Z,82.71
2018-12-03T03:47:09.175Z,82.9
2018-12-03T03:48:09.444Z,82.52
2018-12-03T03:49:09.232Z,82.52
2018-12-03T03:50:09.497Z,82.71
2018-12-03T03:51:09.259Z,82.52
2018-12-03T03:52:09.274Z,82.71
2018-12-03T03:53:09.552Z,82.61
2018-12-03T03:54:09.321Z,82.42
2018-12-03T03:55:09.353Z,82.61
2018-12-03T03:56:09.621Z,82.81
2018-12-03T03:57:09.640Z,82.71
2018-12-03T03:58:09.665Z,83.09
2018-12-03T03:59:09.677Z,82.71
2018-12-03T04:00:09.447Z,82.81
2018-12-03T04:01:09.730Z,82.81
2018-12-03T04:02:09.742Z,82.42
2018-12-03T04:03:09.499Z,82.71
2018-12-03T04:04:09.525Z,82.71
2018-12-03T04:05:09.553Z,82.42
2018-12-03T04:06:09.826Z,82.42
2018-12-03T04:07:09.596Z,82.42
2018-12-03T04:08:09.611Z,82.52
2018-12-03T04:09:09.886Z,82.61
2018-12-03T04:10:09.653Z,82.52
2018-12-03T04:11:09.675Z,82.71
2018-12-03T04:12:09.962Z,82.71
2018-12-03T04:13:09.736Z,82.81
2018-12-03T04:14:10.006Z,82.81
2018-12-03T04:15:10.030Z,82.42
2018-12-03T04:16:10.034Z,82.81
2018-12-03T04:17:10.056Z,82.61
2018-12-03T04:18:09.819Z,83
2018-12-03T04:19:09.855Z,82.81
2018-12-03T04:20:10.133Z,82.61
2018-12-03T04:21:09.891Z,82.9
2018-12-03T04:22:09.907Z,82.9
2018-12-03T04:23:09.923Z,82.61
2018-12-03T04:24:10.223Z,82.71
2018-12-03T04:25:09.968Z,82.61
2018-12-03T04:26:09.995Z,82.71
2018-12-03T04:27:10.018Z,82.9
2018-12-03T04:28:10.044Z,83.18
2018-12-03T04:29:10.058Z,82.61
2018-12-03T04:30:10.082Z,82.61
2018-12-03T04:31:10.096Z,82.42
2018-12-03T04:32:10.125Z,82.71
2018-12-03T04:33:10.407Z,82.71
2018-12-03T04:34:10.436Z,82.9
2018-12-03T04:35:10.447Z,82.71
2018-12-03T04:36:10.458Z,82.81
2018-12-03T04:37:10.495Z,82.81
2018-12-03T04:38:10.255Z,82.9
2018-12-03T04:39:10.270Z,82.61
2018-12-03T04:40:10.292Z,83.09
2018-12-03T04:41:10.314Z,82.61
2018-12-03T04:42:10.330Z,82.71
2018-12-03T04:43:10.611Z,82.52
2018-12-03T04:44:10.372Z,82.81
2018-12-03T04:45:10.395Z,82.52
2018-12-03T04:46:10.417Z,82.52
2018-12-03T04:47:10.442Z,82.71
2018-12-03T04:48:10.455Z,82.61
2018-12-03T04:49:10.480Z,82.71
2018-12-03T04:50:10.497Z,82.71
2018-12-03T04:51:10.781Z,82.71
2018-12-03T04:52:10.803Z,82.71
2018-12-03T04:53:10.564Z,82.71
2018-12-03T04:54:10.589Z,82.61
2018-12-03T04:55:10.622Z,82.61
2018-12-03T04:56:10.883Z,82.81
2018-12-03T04:57:10.675Z,82.52
2018-12-03T04:58:10.935Z,82.81
2018-12-03T04:59:10.950Z,82.61
2018-12-03T05:00:10.973Z,82.9
2018-12-03T05:01:10.991Z,82.71
2018-12-03T05:02:11.020Z,82.81
2018-12-03T05:03:10.789Z,82.81
2018-12-03T05:04:10.805Z,82.81
2018-12-03T05:05:10.817Z,82.81
2018-12-03T05:06:10.841Z,83.18
2018-12-03T05:07:10.912Z,82.71
2018-12-03T05:08:10.882Z,83.09
2018-12-03T05:09:11.164Z,83.47
2018-12-03T05:10:11.232Z,83.57
2018-12-03T05:11:10.954Z,83
2018-12-03T05:12:10.973Z,83.28
2018-12-03T05:13:10.991Z,83.18
2018-12-03T05:14:11.015Z,83.38
2018-12-03T05:15:11.032Z,82.9
2018-12-03T05:16:11.327Z,83.38
2018-12-03T05:17:11.347Z,83.09
2018-12-03T05:18:11.370Z,83.28
2018-12-03T05:19:11.372Z,83.86
2018-12-03T05:20:11.399Z,83.28
2018-12-03T05:21:11.177Z,83.86
2018-12-03T05:22:11.184Z,83.67
2018-12-03T05:23:11.204Z,83.76
2018-12-03T05:24:11.494Z,84.33
2018-12-03T05:25:11.502Z,84.05
2018-12-03T05:26:11.521Z,84.05
2018-12-03T05:27:11.288Z,84.05
2018-12-03T05:28:11.309Z,83.76
2018-12-03T05:29:11.328Z,84.14
2018-12-03T05:30:11.359Z,84.23
2018-12-03T05:31:11.641Z,84.14
2018-12-03T05:32:11.650Z,84.14
2018-12-03T05:33:11.689Z,83.47
2018-12-03T05:34:11.441Z,84.14
2018-12-03T05:35:11.730Z,83.95
2018-12-03T05:36:11.481Z,84.33
2018-12-03T05:37:11.764Z,84.23
2018-12-03T05:38:11.778Z,84.05
2018-12-03T05:39:11.803Z,84.14
2018-12-03T05:40:11.568Z,84.91
2018-12-03T05:41:11.588Z,85
2018-12-03T05:42:11.611Z,84.72
2018-12-03T05:43:11.903Z,84.67
2018-12-03T05:44:11.650Z,84.58
2018-12-03T05:45:11.946Z,84.48
2018-12-03T05:46:11.953Z,84.67
2018-12-03T05:47:11.715Z,84.96
2018-12-03T05:48:11.746Z,85.05
2018-12-03T05:49:11.755Z,85.44
2018-12-03T05:50:12.046Z,85.25
2018-12-03T05:51:12.067Z,85.25
2018-12-03T05:52:12.078Z,85.05
2018-12-03T05:53:11.855Z,85.05
2018-12-03T05:54:11.873Z,85.25
2018-12-03T05:55:11.892Z,85.25
2018-12-03T05:56:11.912Z,85.44
2018-12-03T05:57:11.929Z,85.34
2018-12-03T05:58:11.952Z,85.25
2018-12-03T05:59:11.969Z,85.53
2018-12-03T06:00:12.259Z,85.05
2018-12-03T06:01:12.010Z,85.63
2018-12-03T06:02:12.301Z,85.63
2018-12-03T06:03:12.067Z,85.72
2018-12-03T06:04:12.331Z,85.63
2018-12-03T06:05:12.097Z,86.1
2018-12-03T06:06:12.119Z,85.63
2018-12-03T06:07:12.407Z,85.72
2018-12-03T06:08:12.162Z,85.82
2018-12-03T06:09:12.441Z,86.1
2018-12-03T06:10:12.473Z,86.1
2018-12-03T06:11:12.482Z,86.01
2018-12-03T06:12:12.519Z,86.01
2018-12-03T06:13:12.274Z,85.25
2018-12-03T06:14:12.288Z,85.34
2018-12-03T06:15:12.310Z,85.44
2018-12-03T06:16:12.593Z,86.1
2018-12-03T06:17:12.624Z,85.34
2018-12-03T06:18:12.631Z,85.44
2018-12-03T06:19:12.403Z,85.53
2018-12-03T06:20:12.419Z,86.01
2018-12-03T06:21:12.442Z,85.34
2018-12-03T06:22:12.462Z,85.3
2018-12-03T06:23:12.481Z,85.39
2018-12-03T06:24:12.509Z,85.39
2018-12-03T06:25:12.794Z,85.44
2018-12-03T06:26:12.552Z,85.53
2018-12-03T06:27:12.565Z,86.01
2018-12-03T06:28:12.599Z,85.3
2018-12-03T06:29:12.620Z,85.97
2018-12-03T06:30:12.892Z,85.49
2018-12-03T06:31:12.908Z,85.34
2018-12-03T06:32:12.672Z,85.39
2018-12-03T06:33:12.690Z,85.21
2018-12-03T06:34:12.733Z,85.39
2018-12-03T06:35:12.737Z,85.3
2018-12-03T06:36:12.756Z,85.39
2018-12-03T06:37:12.778Z,85.77
2018-12-03T06:38:17.642Z,85.3
2018-12-03T06:39:13.081Z,85.39
2018-12-03T06:40:13.108Z,85.39
2018-12-03T06:41:13.132Z,85.97
2018-12-03T06:42:12.884Z,85.3
2018-12-03T06:43:13.174Z,85.11
2018-12-03T06:44:12.926Z,85.39
2018-12-03T06:45:12.954Z,85.49
2018-12-03T06:46:13.243Z,85.58
2018-12-03T06:47:12.993Z,85.49
2018-12-03T06:48:13.016Z,85.68
2018-12-03T06:49:13.035Z,85.68
2018-12-03T06:50:13.057Z,85.58
2018-12-03T06:51:13.078Z,86.06
2018-12-03T06:52:13.102Z,85.49
2018-12-03T06:53:13.126Z,86.06
2018-12-03T06:54:13.403Z,85.58
2018-12-03T06:55:13.459Z,85.11
2018-12-03T06:56:13.190Z,86.16
2018-12-03T06:57:13.465Z,86.06
2018-12-03T06:58:13.482Z,85.58
2018-12-03T06:59:13.514Z,86.06
2018-12-03T07:00:13.523Z,86.16
2018-12-03T07:01:13.548Z,86.06
2018-12-03T07:02:13.316Z,86.16
2018-12-03T07:03:13.328Z,85.49
2018-12-03T07:04:13.608Z,85.49
2018-12-03T07:05:13.373Z,85.58
2018-12-03T07:06:13.405Z,85.39
2018-12-03T07:07:13.672Z,85.77
2018-12-03T07:08:13.435Z,85.21
2018-12-03T07:09:13.722Z,85.39
2018-12-03T07:10:13.749Z,85.58
2018-12-03T07:11:13.498Z,85.21
2018-12-03T07:12:13.787Z,85.11
2018-12-03T07:13:13.544Z,85.25
2018-12-03T07:14:13.562Z,85.21
2018-12-03T07:15:13.596Z,84.92
2018-12-03T07:16:13.603Z,85.05
2018-12-03T07:17:15.045Z,84.48
2018-12-03T07:18:13.905Z,84.77
2018-12-03T07:19:13.672Z,84.77
2018-12-03T07:20:13.950Z,84.58
2018-12-03T07:21:13.711Z,84.39
2018-12-03T07:22:13.735Z,84.67
2018-12-03T07:23:14.066Z,84.67
2018-12-03T07:24:14.032Z,84.96
2018-12-03T07:25:13.794Z,84.2
2018-12-03T07:26:14.088Z,84.1
2018-12-03T07:27:13.840Z,84.2
2018-12-03T07:28:13.863Z,84.1
2018-12-03T07:29:13.889Z,84.86
2018-12-03T07:30:13.908Z,83.91
2018-12-03T07:31:13.924Z,84.2
2018-12-03T07:32:14.215Z,84.2
2018-12-03T07:33:13.965Z,84.2
2018-12-03T07:34:13.992Z,84.2
2018-12-03T07:35:14.013Z,84.67
2018-12-03T07:36:14.284Z,84.86
2018-12-03T07:37:14.306Z,84.96
2018-12-03T07:38:14.327Z,84.67
2018-12-03T07:39:14.089Z,84.2
2018-12-03T07:40:14.368Z,84.2
2018-12-03T07:41:14.135Z,84.2
2018-12-03T07:42:14.152Z,84.2
2018-12-03T07:43:14.185Z,84.2
2018-12-03T07:44:14.206Z,84.77
2018-12-03T07:45:14.478Z,84.1
2018-12-03T07:46:14.249Z,84.2
2018-12-03T07:47:14.259Z,84
2018-12-03T07:48:14.548Z,84.96
2018-12-03T07:49:14.559Z,84.2
2018-12-03T07:50:14.586Z,84.1
2018-12-03T07:51:14.343Z,83.72
2018-12-03T07:52:14.636Z,84.1
2018-12-03T07:53:14.385Z,84
2018-12-03T07:54:15.365Z,84.29
2018-12-03T07:55:14.432Z,84.2
2018-12-03T07:56:14.459Z,84.39
2018-12-03T07:57:14.469Z,84.29
2018-12-03T07:58:14.492Z,84
2018-12-03T07:59:14.523Z,83.72
2018-12-03T08:00:14.544Z,84
2018-12-03T08:01:14.563Z,83.62
2018-12-03T08:02:14.580Z,84
2018-12-03T08:03:14.860Z,84.2
2018-12-03T08:04:14.881Z,83.91
2018-12-03T08:05:14.650Z,83.91
2018-12-03T08:06:14.917Z,83.91
2018-12-03T08:07:14.683Z,83.53
2018-12-03T08:08:14.713Z,82.86
2018-12-03T08:09:14.989Z,83.34
2018-12-03T08:10:15.006Z,83.24
2018-12-03T08:11:14.767Z,83.09
2018-12-03T08:12:15.046Z,82.86
2018-12-03T08:13:15.073Z,83.34
2018-12-03T08:14:14.839Z,83.14
2018-12-03T08:15:15.110Z,82.95
2018-12-03T08:16:15.140Z,82.76
2018-12-03T08:17:15.154Z,83.43
2018-12-03T08:18:15.172Z,83.43
2018-12-03T08:19:15.209Z,83.62
2018-12-03T08:20:14.964Z,83.47
2018-12-03T08:21:15.237Z,83.24
2018-12-03T08:22:15.256Z,83.47
2018-12-03T08:23:15.028Z,83.24
2018-12-03T08:24:15.047Z,83.05
2018-12-03T08:25:15.062Z,83.76
2018-12-03T08:26:15.093Z,82.9
2018-12-03T08:27:15.103Z,83.67
2018-12-03T08:28:15.135Z,83.53
2018-12-03T08:29:15.154Z,82.9
2018-12-03T08:30:15.213Z,82.81
2018-12-03T08:31:15.461Z,82.61
2018-12-03T08:32:15.486Z,82.61
2018-12-03T08:33:15.238Z,82.9
2018-12-03T08:34:15.256Z,82.61
2018-12-03T08:35:15.536Z,82.71
2018-12-03T08:36:15.559Z,82.52
2018-12-03T08:37:15.326Z,82.81
2018-12-03T08:38:15.617Z,82.71
2018-12-03T08:39:15.366Z,82.42
2018-12-03T08:40:15.390Z,82.81
2018-12-03T08:41:15.661Z,82.42
2018-12-03T08:42:15.424Z,82.61
2018-12-03T08:43:15.704Z,82.61
2018-12-03T08:44:15.747Z,82.81
2018-12-03T08:45:15.492Z,82.04
2018-12-03T08:46:15.516Z,82.04
2018-12-03T08:47:15.793Z,82.04
2018-12-03T08:48:15.808Z,82.14
2018-12-03T08:49:16.648Z,82.23
2018-12-03T08:50:15.868Z,82.04
2018-12-03T08:51:15.880Z,82.14
2018-12-03T08:52:15.644Z,82.04
2018-12-03T08:53:15.669Z,82.32
2018-12-03T08:54:15.688Z,82.32
2018-12-03T08:55:15.705Z,82.42
2018-12-03T08:56:15.775Z,82.32
2018-12-03T08:57:15.743Z,82.32
2018-12-03T08:58:15.772Z,82.42
2018-12-03T08:59:15.784Z,82.42
2018-12-03T09:00:15.813Z,82.52
2018-12-03T09:01:15.828Z,82.32
2018-12-03T09:02:16.124Z,81.66
2018-12-03T09:03:16.139Z,81.56
2018-12-03T09:04:16.156Z,81.85
2018-12-03T09:05:16.169Z,81.56
2018-12-03T09:06:15.941Z,81.85
2018-12-03T09:07:16.220Z,81.85
2018-12-03T09:08:16.239Z,81.95
2018-12-03T09:09:16.265Z,81.76
2018-12-03T09:10:16.018Z,81.85
2018-12-03T09:11:16.052Z,81.66
2018-12-03T09:12:16.064Z,81.66
2018-12-03T09:13:16.338Z,81.66
2018-12-03T09:14:16.104Z,82.42
2018-12-03T09:15:16.125Z,82.52
2018-12-03T09:16:16.152Z,81.66
2018-12-03T09:17:16.171Z,81.66
2018-12-03T09:18:16.186Z,81.85
2018-12-03T09:19:16.212Z,82.32
2018-12-03T09:20:16.234Z,82.52
2018-12-03T09:21:16.541Z,82.42
2018-12-03T09:22:16.277Z,82.52
2018-12-03T09:23:16.573Z,82.52
2018-12-03T09:24:16.574Z,82.42
2018-12-03T09:25:16.599Z,81.85
2018-12-03T09:26:16.617Z,81.85
2018-12-03T09:27:16.395Z,82.32
2018-12-03T09:28:16.666Z,82.42
2018-12-03T09:29:16.682Z,82.61
2018-12-03T09:30:16.448Z,82.42
2018-12-03T09:31:16.725Z,82.23
2018-12-03T09:32:16.754Z,82.32
2018-12-03T09:33:16.766Z,82.32
2018-12-03T09:34:16.792Z,82.32
2018-12-03T09:35:16.808Z,82.42
2018-12-03T09:36:16.581Z,82.42
2018-12-03T09:37:16.590Z,82.32
2018-12-03T09:38:16.623Z,82.32
2018-12-03T09:39:16.639Z,82.04
2018-12-03T09:40:16.928Z,82.32
2018-12-03T09:41:16.946Z,81.66
2018-12-03T09:42:16.963Z,81.85
2018-12-03T09:43:16.717Z,81.66
2018-12-03T09:44:17.002Z,81.85
2018-12-03T09:45:16.765Z,81.85
2018-12-03T09:46:17.040Z,81.47
2018-12-03T09:47:16.816Z,81.56
2018-12-03T09:48:17.082Z,81.47
2018-12-03T09:49:16.850Z,81.27
2018-12-03T09:50:16.879Z,81.66
2018-12-03T09:51:16.898Z,81.37
2018-12-03T09:52:16.912Z,81.37
2018-12-03T09:53:16.940Z,81.37
2018-12-03T09:54:16.962Z,81.37
2018-12-03T09:55:16.976Z,81.47
2018-12-03T09:56:17.265Z,81.56
2018-12-03T09:57:17.282Z,81.47
2018-12-03T09:58:17.044Z,81.56
2018-12-03T09:59:17.059Z,81.37
2018-12-03T10:00:17.339Z,81.56
2018-12-03T10:01:17.125Z,81.37
2018-12-03T10:02:17.127Z,81.47
2018-12-03T10:03:17.165Z,81.56
2018-12-03T10:04:17.167Z,81.47
2018-12-03T10:05:17.188Z,81.85
2018-12-03T10:06:17.211Z,81.56
2018-12-03T10:07:17.231Z,81.95
2018-12-03T10:08:17.253Z,81.76
2018-12-03T10:09:17.533Z,81.66
2018-12-03T10:10:17.560Z,81.47
2018-12-03T10:11:17.588Z,80.99
2018-12-03T10:12:20.668Z,81.18
2018-12-03T10:13:17.616Z,81.13
2018-12-03T10:14:17.638Z,80.65
2018-12-03T10:15:17.405Z,81.03
2018-12-03T10:16:17.420Z,81.03
2018-12-03T10:17:17.713Z,80.46
2018-12-03T10:18:17.740Z,80.46
2018-12-03T10:19:17.755Z,80.65
2018-12-03T10:20:17.509Z,80.46
2018-12-03T10:21:17.534Z,80.27
2018-12-03T10:22:17.552Z,80.65
2018-12-03T10:23:17.831Z,80.46
2018-12-03T10:24:17.593Z,80.46
2018-12-03T10:25:17.882Z,80.27
2018-12-03T10:26:17.644Z,80.65
2018-12-03T10:27:17.654Z,80.46
2018-12-03T10:28:17.949Z,80.17
2018-12-03T10:29:17.699Z,80.46
2018-12-03T10:30:17.981Z,80.07
2018-12-03T10:31:17.742Z,79.88
2018-12-03T10:32:17.769Z,79.88
2018-12-03T10:33:18.055Z,79.98
2018-12-03T10:34:18.066Z,80.27
2018-12-03T10:35:18.090Z,80.07
2018-12-03T10:36:17.870Z,80.27
2018-12-03T10:37:17.871Z,80.07
2018-12-03T10:38:17.901Z,80.07
2018-12-03T10:39:18.173Z,80.07
2018-12-03T10:40:17.943Z,80.07
2018-12-03T10:41:17.956Z,79.79
2018-12-03T10:42:17.980Z,80.17
2018-12-03T10:43:18.273Z,79.98
2018-12-03T10:44:18.280Z,79.98
2018-12-03T10:45:18.050Z,79.69
2018-12-03T10:46:18.069Z,80.46
2018-12-03T10:47:18.348Z,80.36
2018-12-03T10:48:18.371Z,80.07
2018-12-03T10:49:18.139Z,80.27
2018-12-03T10:50:22.169Z,79.98
2018-12-03T10:51:18.434Z,79.79
2018-12-03T10:52:18.199Z,79.79
2018-12-03T10:53:18.212Z,79.69
2018-12-03T10:54:18.504Z,80.27
2018-12-03T10:55:18.259Z,80.46
2018-12-03T10:56:19.543Z,80.27
2018-12-03T10:57:18.557Z,80.55
2018-12-03T10:58:18.336Z,80.27
2018-12-03T10:59:18.351Z,80.65
2018-12-03T11:00:18.623Z,80.84
2018-12-03T11:01:18.649Z,80.65
2018-12-03T11:02:18.410Z,80.74
2018-12-03T11:03:18.696Z,80.55
2018-12-03T11:04:18.457Z,81.22
2018-12-03T11:05:18.482Z,81.13
2018-12-03T11:06:18.494Z,80.93
2018-12-03T11:07:18.789Z,81.13
2018-12-03T11:08:18.800Z,81.6
2018-12-03T11:09:18.558Z,81.51
2018-12-03T11:10:18.587Z,81.6
2018-12-03T11:11:18.606Z,81.99
2018-12-03T11:12:18.879Z,81.6
2018-12-03T11:13:18.643Z,81.79
2018-12-03T11:14:18.927Z,81.7
2018-12-03T11:15:18.956Z,81.51
2018-12-03T11:16:18.707Z,81.7
2018-12-03T11:17:18.730Z,81.32
2018-12-03T11:18:18.751Z,81.41
2018-12-03T11:19:18.778Z,81.41
2018-12-03T11:20:18.803Z,81.6
2018-12-03T11:21:18.824Z,81.6
2018-12-03T11:22:19.096Z,81.6
2018-12-03T11:23:19.116Z,81.79
2018-12-03T11:24:18.876Z,81.6
2018-12-03T11:25:19.158Z,81.6
2018-12-03T11:26:19.185Z,81.32
2018-12-03T11:27:18.942Z,81.6
2018-12-03T11:28:19.223Z,81.41
2018-12-03T11:29:19.245Z,81.41
2018-12-03T11:30:19.284Z,81.7
2018-12-03T11:31:19.029Z,81.41
2018-12-03T11:32:19.048Z,81.32
2018-12-03T11:33:19.330Z,81.6
2018-12-03T11:34:19.097Z,81.51
2018-12-03T11:35:19.377Z,81.03
2018-12-03T11:36:19.401Z,81.13
2018-12-03T11:37:19.158Z,80.93
2018-12-03T11:38:19.183Z,81.13
2018-12-03T11:39:19.460Z,81.22
2018-12-03T11:40:19.222Z,81.03
2018-12-03T11:41:19.243Z,81.32
2018-12-03T11:42:19.270Z,81.03
2018-12-03T11:43:19.301Z,81.03
2018-12-03T11:44:19.306Z,81.07
2018-12-03T11:45:19.597Z,81.13
2018-12-03T11:46:19.359Z,81.03
2018-12-03T11:47:19.645Z,81.03
2018-12-03T11:48:19.660Z,80.93
2018-12-03T11:49:19.671Z,81.13
2018-12-03T11:50:19.444Z,81.32
2018-12-03T11:51:19.737Z,81.03
2018-12-03T11:52:19.783Z,80.93
2018-12-03T11:53:20.899Z,80.93
2018-12-03T11:54:19.780Z,81.13
2018-12-03T11:55:19.805Z,81.22
2018-12-03T11:56:19.564Z,81.13
2018-12-03T11:57:19.587Z,81.13
2018-12-03T11:58:19.875Z,81.32
2018-12-03T11:59:19.633Z,81.26
2018-12-03T12:00:19.664Z,81.07
2018-12-03T12:01:19.932Z,81.03
2018-12-03T12:02:19.698Z,81.13
2018-12-03T12:03:19.973Z,81.22
2018-12-03T12:04:19.745Z,81.13
2018-12-03T12:05:19.765Z,81.32
2018-12-03T12:06:20.051Z,81.22
2018-12-03T12:07:19.813Z,81.26
2018-12-03T12:08:20.394Z,81.22
2018-12-03T12:09:23.229Z,81.13
2018-12-03T12:10:20.127Z,80.93
2018-12-03T12:11:20.146Z,81.6
2018-12-03T12:12:19.930Z,81.07
2018-12-03T12:13:19.931Z,81.07
2018-12-03T12:14:20.212Z,81.32
2018-12-03T12:15:19.975Z,81.26
2018-12-03T12:16:20.144Z,81.26
2018-12-03T12:17:20.018Z,80.93
2018-12-03T12:18:20.053Z,80.98
2018-12-03T12:19:20.068Z,80.79
2018-12-03T12:20:20.355Z,80.69
2018-12-03T12:21:20.104Z,80.98
2018-12-03T12:22:20.384Z,80.5
2018-12-03T12:23:20.142Z,80.65
2018-12-03T12:24:20.175Z,80.3
2018-12-03T12:25:20.448Z,80.5
2018-12-03T12:26:20.215Z,80.21
2018-12-03T12:27:20.502Z,80.59
2018-12-03T12:28:20.525Z,80.17
2018-12-03T12:29:20.532Z,80.4
2018-12-03T12:30:20.306Z,80.69
2018-12-03T12:31:20.316Z,80.46
2018-12-03T12:32:20.597Z,80.3
2018-12-03T12:33:20.424Z,80.27
2018-12-03T12:34:20.379Z,80.46
2018-12-03T12:35:20.413Z,80.79
2018-12-03T12:36:20.689Z,80.74
2018-12-03T12:37:20.703Z,80.84
2018-12-03T12:38:20.466Z,81.03
2018-12-03T12:39:20.490Z,81.22
2018-12-03T12:40:20.515Z,81.13
2018-12-03T12:41:20.534Z,81.22
2018-12-03T12:42:20.553Z,81.13
2018-12-03T12:43:20.580Z,81.03
2018-12-03T12:44:20.605Z,81.13
2018-12-03T12:45:20.617Z,81.6
2018-12-03T12:46:20.646Z,81.79
2018-12-03T12:47:20.922Z,81.89
2018-12-03T12:48:20.943Z,81.79
2018-12-03T12:49:20.707Z,81.41
2018-12-03T12:50:20.987Z,81.51
2018-12-03T12:51:21.002Z,81.51
2018-12-03T12:52:21.028Z,81.89
2018-12-03T12:53:20.799Z,81.79
2018-12-03T12:54:21.068Z,81.79
2018-12-03T12:55:20.831Z,81.79